sensor_id;sensor_type;location;lat;lon;timestamp;temperature;humidity
67942;SHT31;54731;42.600;23.476;2023-07-02T00:02:22;17.61;75.36
67942;SHT31;54731;42.600;23.476;2023-07-02T00:04:47;17.57;75.39
67942;SHT31;54731;42.600;23.476;2023-07-02T00:07:13;17.60;75.21
67942;SHT31;54731;42.600;23.476;2023-07-02T00:09:39;17.60;75.18
67942;SHT31;54731;42.600;23.476;2023-07-02T00:12:04;17.58;75.23
67942;SHT31;54731;42.600;23.476;2023-07-02T00:14:30;17.55;75.42
67942;SHT31;54731;42.600;23.476;2023-07-02T00:16:55;17.53;75.57
67942;SHT31;54731;42.600;23.476;2023-07-02T00:19:20;17.54;75.05
67942;SHT31;54731;42.600;23.476;2023-07-02T00:21:46;17.50;75.10
67942;SHT31;54731;42.600;23.476;2023-07-02T00:24:11;17.47;75.27
67942;SHT31;54731;42.600;23.476;2023-07-02T00:26:37;17.41;75.05
67942;SHT31;54731;42.600;23.476;2023-07-02T00:29:03;17.41;74.94
67942;SHT31;54731;42.600;23.476;2023-07-02T00:31:28;17.31;75.17
67942;SHT31;54731;42.600;23.476;2023-07-02T00:33:53;17.30;75.17
67942;SHT31;54731;42.600;23.476;2023-07-02T00:36:19;17.30;74.91
67942;SHT31;54731;42.600;23.476;2023-07-02T00:38:45;17.31;74.40
67942;SHT31;54731;42.600;23.476;2023-07-02T00:41:11;17.23;75.55
67942;SHT31;54731;42.600;23.476;2023-07-02T00:43:37;17.22;75.85
67942;SHT31;54731;42.600;23.476;2023-07-02T00:46:03;17.19;75.82
67942;SHT31;54731;42.600;23.476;2023-07-02T00:48:29;17.16;76.02
67942;SHT31;54731;42.600;23.476;2023-07-02T00:50:55;17.16;76.07
67942;SHT31;54731;42.600;23.476;2023-07-02T00:53:21;17.17;75.59
67942;SHT31;54731;42.600;23.476;2023-07-02T00:55:46;17.10;75.27
67942;SHT31;54731;42.600;23.476;2023-07-02T00:58:11;17.15;75.58
67942;SHT31;54731;42.600;23.476;2023-07-02T01:00:37;17.16;75.74
67942;SHT31;54731;42.600;23.476;2023-07-02T01:03:02;17.13;75.98
67942;SHT31;54731;42.600;23.476;2023-07-02T01:05:28;17.12;76.18
67942;SHT31;54731;42.600;23.476;2023-07-02T01:07:54;17.15;76.27
67942;SHT31;54731;42.600;23.476;2023-07-02T01:10:19;17.16;76.54
67942;SHT31;54731;42.600;23.476;2023-07-02T01:12:45;17.20;76.65
67942;SHT31;54731;42.600;23.476;2023-07-02T01:15:11;17.24;76.56
67942;SHT31;54731;42.600;23.476;2023-07-02T01:17:36;17.23;76.40
67942;SHT31;54731;42.600;23.476;2023-07-02T01:20:01;17.20;76.25
67942;SHT31;54731;42.600;23.476;2023-07-02T01:22:28;17.23;75.98
67942;SHT31;54731;42.600;23.476;2023-07-02T01:24:54;17.22;76.15
67942;SHT31;54731;42.600;23.476;2023-07-02T01:27:20;17.22;76.47
67942;SHT31;54731;42.600;23.476;2023-07-02T01:29:46;17.24;76.20
67942;SHT31;54731;42.600;23.476;2023-07-02T01:32:13;17.28;75.54
67942;SHT31;54731;42.600;23.476;2023-07-02T01:34:38;17.30;75.58
67942;SHT31;54731;42.600;23.476;2023-07-02T01:37:04;17.28;75.38
67942;SHT31;54731;42.600;23.476;2023-07-02T01:39:30;17.30;75.37
67942;SHT31;54731;42.600;23.476;2023-07-02T01:42:10;17.28;75.52
67942;SHT31;54731;42.600;23.476;2023-07-02T01:44:35;17.24;75.91
67942;SHT31;54731;42.600;23.476;2023-07-02T01:47:01;17.22;76.02
67942;SHT31;54731;42.600;23.476;2023-07-02T01:49:26;17.19;76.06
67942;SHT31;54731;42.600;23.476;2023-07-02T01:51:52;17.17;76.15
67942;SHT31;54731;42.600;23.476;2023-07-02T01:54:24;17.26;75.47
67942;SHT31;54731;42.600;23.476;2023-07-02T01:56:49;17.27;75.41
67942;SHT31;54731;42.600;23.476;2023-07-02T01:59:15;17.30;75.75
67942;SHT31;54731;42.600;23.476;2023-07-02T02:01:41;17.26;75.96
67942;SHT31;54731;42.600;23.476;2023-07-02T02:04:07;17.26;77.32
67942;SHT31;54731;42.600;23.476;2023-07-02T02:06:33;17.27;77.65
67942;SHT31;54731;42.600;23.476;2023-07-02T02:08:58;17.30;78.01
67942;SHT31;54731;42.600;23.476;2023-07-02T02:11:23;17.27;77.95
67942;SHT31;54731;42.600;23.476;2023-07-02T02:13:48;17.26;78.03
67942;SHT31;54731;42.600;23.476;2023-07-02T02:16:14;17.28;77.95
67942;SHT31;54731;42.600;23.476;2023-07-02T02:18:39;17.28;78.34
67942;SHT31;54731;42.600;23.476;2023-07-02T02:21:04;17.22;78.75
67942;SHT31;54731;42.600;23.476;2023-07-02T02:23:30;17.19;78.59
67942;SHT31;54731;42.600;23.476;2023-07-02T02:25:55;17.05;80.00
67942;SHT31;54731;42.600;23.476;2023-07-02T02:28:20;17.03;80.74
67942;SHT31;54731;42.600;23.476;2023-07-02T02:30:46;16.96;80.56
67942;SHT31;54731;42.600;23.476;2023-07-02T02:33:11;16.95;80.95
67942;SHT31;54731;42.600;23.476;2023-07-02T02:35:36;16.85;82.01
67942;SHT31;54731;42.600;23.476;2023-07-02T02:38:02;16.83;81.83
67942;SHT31;54731;42.600;23.476;2023-07-02T02:40:28;16.83;82.04
67942;SHT31;54731;42.600;23.476;2023-07-02T02:42:53;16.76;82.43
67942;SHT31;54731;42.600;23.476;2023-07-02T02:45:19;16.69;82.35
67942;SHT31;54731;42.600;23.476;2023-07-02T02:47:46;16.66;82.53
67942;SHT31;54731;42.600;23.476;2023-07-02T02:50:12;16.66;82.69
67942;SHT31;54731;42.600;23.476;2023-07-02T02:52:37;16.63;82.97
67942;SHT31;54731;42.600;23.476;2023-07-02T02:55:06;16.58;82.63
67942;SHT31;54731;42.600;23.476;2023-07-02T02:57:32;16.66;82.80
67942;SHT31;54731;42.600;23.476;2023-07-02T02:59:57;16.69;83.13
67942;SHT31;54731;42.600;23.476;2023-07-02T03:02:22;16.63;82.46
67942;SHT31;54731;42.600;23.476;2023-07-02T03:04:48;16.61;82.82
67942;SHT31;54731;42.600;23.476;2023-07-02T03:07:13;16.61;82.72
67942;SHT31;54731;42.600;23.476;2023-07-02T03:09:38;16.49;83.31
67942;SHT31;54731;42.600;23.476;2023-07-02T03:12:04;16.48;83.42
67942;SHT31;54731;42.600;23.476;2023-07-02T03:14:29;16.41;83.52
67942;SHT31;54731;42.600;23.476;2023-07-02T03:16:55;16.41;83.83
67942;SHT31;54731;42.600;23.476;2023-07-02T03:19:20;16.42;83.59
67942;SHT31;54731;42.600;23.476;2023-07-02T03:21:45;16.52;80.48
67942;SHT31;54731;42.600;23.476;2023-07-02T03:24:11;16.53;78.29
67942;SHT31;54731;42.600;23.476;2023-07-02T03:26:36;16.58;80.77
67942;SHT31;54731;42.600;23.476;2023-07-02T03:29:01;16.56;81.75
67942;SHT31;54731;42.600;23.476;2023-07-02T03:31:27;16.55;82.55
67942;SHT31;54731;42.600;23.476;2023-07-02T03:33:52;16.52;83.50
67942;SHT31;54731;42.600;23.476;2023-07-02T03:36:17;16.49;83.81
67942;SHT31;54731;42.600;23.476;2023-07-02T03:38:42;16.51;83.79
67942;SHT31;54731;42.600;23.476;2023-07-02T03:41:08;16.52;83.90
67942;SHT31;54731;42.600;23.476;2023-07-02T03:43:33;16.58;84.04
67942;SHT31;54731;42.600;23.476;2023-07-02T03:45:58;16.62;83.60
67942;SHT31;54731;42.600;23.476;2023-07-02T03:48:24;16.53;83.79
67942;SHT31;54731;42.600;23.476;2023-07-02T03:50:49;16.52;83.64
67942;SHT31;54731;42.600;23.476;2023-07-02T03:53:14;16.53;83.45
67942;SHT31;54731;42.600;23.476;2023-07-02T03:55:39;16.56;83.34
67942;SHT31;54731;42.600;23.476;2023-07-02T03:58:05;16.58;83.14
67942;SHT31;54731;42.600;23.476;2023-07-02T04:00:30;16.62;82.34
67942;SHT31;54731;42.600;23.476;2023-07-02T04:02:55;16.62;82.90
67942;SHT31;54731;42.600;23.476;2023-07-02T04:05:20;16.63;83.30
67942;SHT31;54731;42.600;23.476;2023-07-02T04:07:46;16.72;83.32
67942;SHT31;54731;42.600;23.476;2023-07-02T04:10:11;16.69;83.37
67942;SHT31;54731;42.600;23.476;2023-07-02T04:12:36;16.65;83.82
67942;SHT31;54731;42.600;23.476;2023-07-02T04:15:02;16.63;83.99
67942;SHT31;54731;42.600;23.476;2023-07-02T04:17:27;16.63;84.12
67942;SHT31;54731;42.600;23.476;2023-07-02T04:19:54;16.63;84.16
67942;SHT31;54731;42.600;23.476;2023-07-02T04:22:20;16.65;84.19
67942;SHT31;54731;42.600;23.476;2023-07-02T04:24:45;16.68;84.30
67942;SHT31;54731;42.600;23.476;2023-07-02T04:27:10;16.71;84.22
67942;SHT31;54731;42.600;23.476;2023-07-02T04:29:35;16.77;83.58
67942;SHT31;54731;42.600;23.476;2023-07-02T04:32:01;16.75;83.36
67942;SHT31;54731;42.600;23.476;2023-07-02T04:34:26;16.75;83.03
67942;SHT31;54731;42.600;23.476;2023-07-02T04:36:51;16.72;83.20
67942;SHT31;54731;42.600;23.476;2023-07-02T04:39:17;16.73;83.13
67942;SHT31;54731;42.600;23.476;2023-07-02T04:41:42;16.75;83.53
67942;SHT31;54731;42.600;23.476;2023-07-02T04:44:07;16.72;83.86
67942;SHT31;54731;42.600;23.476;2023-07-02T04:46:32;16.68;83.84
67942;SHT31;54731;42.600;23.476;2023-07-02T04:48:58;16.68;84.07
67942;SHT31;54731;42.600;23.476;2023-07-02T04:51:24;16.71;83.93
67942;SHT31;54731;42.600;23.476;2023-07-02T04:53:49;16.72;83.99
67942;SHT31;54731;42.600;23.476;2023-07-02T04:56:15;16.79;84.11
67942;SHT31;54731;42.600;23.476;2023-07-02T04:58:40;16.76;83.83
67942;SHT31;54731;42.600;23.476;2023-07-02T05:01:05;16.77;83.21
67942;SHT31;54731;42.600;23.476;2023-07-02T05:03:30;16.75;83.19
67942;SHT31;54731;42.600;23.476;2023-07-02T05:05:56;16.76;83.00
67942;SHT31;54731;42.600;23.476;2023-07-02T05:08:21;16.76;82.91
67942;SHT31;54731;42.600;23.476;2023-07-02T05:10:47;16.83;82.93
67942;SHT31;54731;42.600;23.476;2023-07-02T05:13:12;16.82;81.80
67942;SHT31;54731;42.600;23.476;2023-07-02T05:15:37;16.82;81.80
67942;SHT31;54731;42.600;23.476;2023-07-02T05:18:03;16.83;82.16
67942;SHT31;54731;42.600;23.476;2023-07-02T05:20:28;16.82;82.34
67942;SHT31;54731;42.600;23.476;2023-07-02T05:22:53;16.80;82.62
67942;SHT31;54731;42.600;23.476;2023-07-02T05:25:19;16.82;82.82
67942;SHT31;54731;42.600;23.476;2023-07-02T05:27:44;16.82;83.04
67942;SHT31;54731;42.600;23.476;2023-07-02T05:30:10;16.80;82.79
67942;SHT31;54731;42.600;23.476;2023-07-02T05:32:35;16.89;82.36
67942;SHT31;54731;42.600;23.476;2023-07-02T05:35:00;16.87;82.10
67942;SHT31;54731;42.600;23.476;2023-07-02T05:37:26;16.90;82.33
67942;SHT31;54731;42.600;23.476;2023-07-02T05:39:51;16.92;82.39
67942;SHT31;54731;42.600;23.476;2023-07-02T05:42:16;16.95;82.21
67942;SHT31;54731;42.600;23.476;2023-07-02T05:44:41;16.97;81.83
67942;SHT31;54731;42.600;23.476;2023-07-02T05:47:07;17.05;81.32
67942;SHT31;54731;42.600;23.476;2023-07-02T05:49:32;17.09;81.83
67942;SHT31;54731;42.600;23.476;2023-07-02T05:51:57;17.07;82.46
67942;SHT31;54731;42.600;23.476;2023-07-02T05:54:23;17.16;82.42
67942;SHT31;54731;42.600;23.476;2023-07-02T05:56:48;17.16;82.53
67942;SHT31;54731;42.600;23.476;2023-07-02T05:59:13;17.22;82.62
67942;SHT31;54731;42.600;23.476;2023-07-02T06:01:38;17.30;82.37
67942;SHT31;54731;42.600;23.476;2023-07-02T06:04:04;17.36;81.65
67942;SHT31;54731;42.600;23.476;2023-07-02T06:06:29;17.40;81.70
67942;SHT31;54731;42.600;23.476;2023-07-02T06:08:54;17.41;81.30
67942;SHT31;54731;42.600;23.476;2023-07-02T06:11:20;17.48;81.33
67942;SHT31;54731;42.600;23.476;2023-07-02T06:13:45;17.51;80.99
67942;SHT31;54731;42.600;23.476;2023-07-02T06:16:10;17.58;80.98
67942;SHT31;54731;42.600;23.476;2023-07-02T06:18:36;17.70;80.90
67942;SHT31;54731;42.600;23.476;2023-07-02T06:21:01;17.81;80.52
67942;SHT31;54731;42.600;23.476;2023-07-02T06:23:26;17.80;80.36
67942;SHT31;54731;42.600;23.476;2023-07-02T06:25:52;17.90;80.73
67942;SHT31;54731;42.600;23.476;2023-07-02T06:28:17;17.95;79.52
67942;SHT31;54731;42.600;23.476;2023-07-02T06:30:42;18.05;79.05
67942;SHT31;54731;42.600;23.476;2023-07-02T06:33:08;18.04;77.33
67942;SHT31;54731;42.600;23.476;2023-07-02T06:35:33;18.05;76.79
67942;SHT31;54731;42.600;23.476;2023-07-02T06:37:58;18.12;75.52
67942;SHT31;54731;42.600;23.476;2023-07-02T06:40:24;18.19;75.32
67942;SHT31;54731;42.600;23.476;2023-07-02T06:42:49;18.28;75.49
67942;SHT31;54731;42.600;23.476;2023-07-02T06:45:14;18.41;75.70
67942;SHT31;54731;42.600;23.476;2023-07-02T06:47:40;18.56;76.32
67942;SHT31;54731;42.600;23.476;2023-07-02T06:50:05;18.60;73.92
67942;SHT31;54731;42.600;23.476;2023-07-02T06:52:30;18.57;73.93
67942;SHT31;54731;42.600;23.476;2023-07-02T06:54:56;18.67;74.71
67942;SHT31;54731;42.600;23.476;2023-07-02T06:57:21;18.63;74.84
67942;SHT31;54731;42.600;23.476;2023-07-02T06:59:46;18.59;74.84
67942;SHT31;54731;42.600;23.476;2023-07-02T07:02:12;18.67;75.01
67942;SHT31;54731;42.600;23.476;2023-07-02T07:04:37;18.86;75.12
67942;SHT31;54731;42.600;23.476;2023-07-02T07:07:02;18.92;74.81
67942;SHT31;54731;42.600;23.476;2023-07-02T07:09:29;18.89;75.08
67942;SHT31;54731;42.600;23.476;2023-07-02T07:11:54;19.06;74.88
67942;SHT31;54731;42.600;23.476;2023-07-02T07:14:19;19.21;74.96
67942;SHT31;54731;42.600;23.476;2023-07-02T07:16:44;19.37;75.14
67942;SHT31;54731;42.600;23.476;2023-07-02T07:19:10;19.43;73.32
67942;SHT31;54731;42.600;23.476;2023-07-02T07:21:35;19.46;73.66
67942;SHT31;54731;42.600;23.476;2023-07-02T07:24:00;19.55;73.65
67942;SHT31;54731;42.600;23.476;2023-07-02T07:26:26;19.59;73.60
67942;SHT31;54731;42.600;23.476;2023-07-02T07:28:51;19.72;73.53
67942;SHT31;54731;42.600;23.476;2023-07-02T07:31:16;19.88;73.08
67942;SHT31;54731;42.600;23.476;2023-07-02T07:33:42;20.06;73.33
67942;SHT31;54731;42.600;23.476;2023-07-02T07:36:07;20.20;72.42
67942;SHT31;54731;42.600;23.476;2023-07-02T07:38:32;20.33;71.59
67942;SHT31;54731;42.600;23.476;2023-07-02T07:40:57;20.46;72.04
67942;SHT31;54731;42.600;23.476;2023-07-02T07:43:23;20.47;71.76
67942;SHT31;54731;42.600;23.476;2023-07-02T07:45:49;20.64;71.83
67942;SHT31;54731;42.600;23.476;2023-07-02T07:48:15;20.74;70.66
67942;SHT31;54731;42.600;23.476;2023-07-02T07:50:40;20.87;70.68
67942;SHT31;54731;42.600;23.476;2023-07-02T07:53:05;21.01;70.25
67942;SHT31;54731;42.600;23.476;2023-07-02T07:55:30;21.15;69.65
67942;SHT31;54731;42.600;23.476;2023-07-02T07:57:56;21.27;69.39
67942;SHT31;54731;42.600;23.476;2023-07-02T08:00:21;21.27;69.32
67942;SHT31;54731;42.600;23.476;2023-07-02T08:02:47;21.24;69.49
67942;SHT31;54731;42.600;23.476;2023-07-02T08:05:12;21.41;69.30
67942;SHT31;54731;42.600;23.476;2023-07-02T08:07:38;21.58;69.18
67942;SHT31;54731;42.600;23.476;2023-07-02T08:10:04;21.72;68.46
67942;SHT31;54731;42.600;23.476;2023-07-02T08:12:29;21.83;68.10
67942;SHT31;54731;42.600;23.476;2023-07-02T08:14:55;21.96;67.86
67942;SHT31;54731;42.600;23.476;2023-07-02T08:17:21;21.98;67.40
67942;SHT31;54731;42.600;23.476;2023-07-02T08:19:46;22.08;67.93
67942;SHT31;54731;42.600;23.476;2023-07-02T08:22:12;22.06;67.34
67942;SHT31;54731;42.600;23.476;2023-07-02T08:24:37;22.26;67.97
67942;SHT31;54731;42.600;23.476;2023-07-02T08:27:03;22.40;67.75
67942;SHT31;54731;42.600;23.476;2023-07-02T08:29:29;22.47;66.86
67942;SHT31;54731;42.600;23.476;2023-07-02T08:31:55;22.57;67.27
67942;SHT31;54731;42.600;23.476;2023-07-02T08:34:20;22.63;66.66
67942;SHT31;54731;42.600;23.476;2023-07-02T08:36:45;22.65;65.51
67942;SHT31;54731;42.600;23.476;2023-07-02T08:39:11;22.59;64.68
67942;SHT31;54731;42.600;23.476;2023-07-02T08:41:46;22.56;65.00
67942;SHT31;54731;42.600;23.476;2023-07-02T08:44:13;22.54;64.48
67942;SHT31;54731;42.600;23.476;2023-07-02T08:46:40;22.67;63.65
67942;SHT31;54731;42.600;23.476;2023-07-02T08:49:06;22.75;66.36
67942;SHT31;54731;42.600;23.476;2023-07-02T08:51:31;22.94;65.31
67942;SHT31;54731;42.600;23.476;2023-07-02T08:53:57;23.10;63.72
67942;SHT31;54731;42.600;23.476;2023-07-02T08:56:22;23.22;62.95
67942;SHT31;54731;42.600;23.476;2023-07-02T08:58:47;23.37;62.75
67942;SHT31;54731;42.600;23.476;2023-07-02T09:01:14;23.48;61.72
67942;SHT31;54731;42.600;23.476;2023-07-02T09:03:40;23.59;62.77
67942;SHT31;54731;42.600;23.476;2023-07-02T09:06:07;23.72;63.19
67942;SHT31;54731;42.600;23.476;2023-07-02T09:08:33;23.61;61.21
67942;SHT31;54731;42.600;23.476;2023-07-02T09:13:50;23.55;61.77
67942;SHT31;54731;42.600;23.476;2023-07-02T09:16:32;23.68;62.19
67942;SHT31;54731;42.600;23.476;2023-07-02T09:19:03;23.79;63.02
67942;SHT31;54731;42.600;23.476;2023-07-02T09:26:42;23.96;62.06
67942;SHT31;54731;42.600;23.476;2023-07-02T09:29:07;23.96;62.85
67942;SHT31;54731;42.600;23.476;2023-07-02T09:31:43;23.97;62.02
67942;SHT31;54731;42.600;23.476;2023-07-02T09:34:08;23.85;61.20
67942;SHT31;54731;42.600;23.476;2023-07-02T09:36:33;23.87;61.84
67942;SHT31;54731;42.600;23.476;2023-07-02T09:38:59;23.97;62.19
67942;SHT31;54731;42.600;23.476;2023-07-02T09:41:25;24.00;62.07
67942;SHT31;54731;42.600;23.476;2023-07-02T09:43:51;24.10;61.10
67942;SHT31;54731;42.600;23.476;2023-07-02T09:46:16;24.23;62.42
67942;SHT31;54731;42.600;23.476;2023-07-02T09:48:42;24.34;62.28
67942;SHT31;54731;42.600;23.476;2023-07-02T09:51:07;24.46;61.55
67942;SHT31;54731;42.600;23.476;2023-07-02T09:53:32;24.56;60.62
67942;SHT31;54731;42.600;23.476;2023-07-02T09:55:58;24.60;60.91
67942;SHT31;54731;42.600;23.476;2023-07-02T09:58:24;24.68;59.77
67942;SHT31;54731;42.600;23.476;2023-07-02T10:00:50;24.57;60.63
67942;SHT31;54731;42.600;23.476;2023-07-02T10:03:15;24.70;59.87
67942;SHT31;54731;42.600;23.476;2023-07-02T10:05:40;24.90;60.63
67942;SHT31;54731;42.600;23.476;2023-07-02T10:08:15;25.19;61.37
67942;SHT31;54731;42.600;23.476;2023-07-02T10:10:41;25.45;59.07
67942;SHT31;54731;42.600;23.476;2023-07-02T10:13:06;25.55;58.82
67942;SHT31;54731;42.600;23.476;2023-07-02T10:15:32;25.62;58.15
67942;SHT31;54731;42.600;23.476;2023-07-02T10:17:59;25.93;57.42
67942;SHT31;54731;42.600;23.476;2023-07-02T10:20:40;26.08;57.60
67942;SHT31;54731;42.600;23.476;2023-07-02T10:23:07;26.23;57.93
67942;SHT31;54731;42.600;23.476;2023-07-02T10:25:34;26.51;57.14
67942;SHT31;54731;42.600;23.476;2023-07-02T10:28:01;26.70;56.77
67942;SHT31;54731;42.600;23.476;2023-07-02T10:30:34;26.72;55.36
67942;SHT31;54731;42.600;23.476;2023-07-02T10:33:17;26.58;54.54
67942;SHT31;54731;42.600;23.476;2023-07-02T10:35:44;26.34;55.87
67942;SHT31;54731;42.600;23.476;2023-07-02T10:38:23;26.55;55.83
67942;SHT31;54731;42.600;23.476;2023-07-02T10:40:59;26.67;56.11
67942;SHT31;54731;42.600;23.476;2023-07-02T10:43:26;26.72;54.89
67942;SHT31;54731;42.600;23.476;2023-07-02T10:45:51;26.77;54.10
67942;SHT31;54731;42.600;23.476;2023-07-02T10:48:17;26.88;55.25
67942;SHT31;54731;42.600;23.476;2023-07-02T10:50:42;26.71;55.61
67942;SHT31;54731;42.600;23.476;2023-07-02T10:53:17;26.65;54.38
67942;SHT31;54731;42.600;23.476;2023-07-02T10:55:43;26.51;54.31
67942;SHT31;54731;42.600;23.476;2023-07-02T10:58:10;26.12;55.67
67942;SHT31;54731;42.600;23.476;2023-07-02T11:00:46;26.36;55.46
67942;SHT31;54731;42.600;23.476;2023-07-02T11:03:21;26.81;55.68
67942;SHT31;54731;42.600;23.476;2023-07-02T11:05:47;26.96;54.23
67942;SHT31;54731;42.600;23.476;2023-07-02T11:08:13;27.02;53.79
67942;SHT31;54731;42.600;23.476;2023-07-02T11:10:38;26.85;52.24
67942;SHT31;54731;42.600;23.476;2023-07-02T11:13:14;26.70;54.02
67942;SHT31;54731;42.600;23.476;2023-07-02T11:15:40;26.99;54.09
67942;SHT31;54731;42.600;23.476;2023-07-02T11:18:11;27.12;53.70
67942;SHT31;54731;42.600;23.476;2023-07-02T11:20:36;27.35;51.80
67942;SHT31;54731;42.600;23.476;2023-07-02T11:23:01;27.66;53.05
67942;SHT31;54731;42.600;23.476;2023-07-02T11:25:27;27.96;52.06
67942;SHT31;54731;42.600;23.476;2023-07-02T11:28:02;28.14;49.54
67942;SHT31;54731;42.600;23.476;2023-07-02T11:30:27;27.82;49.10
67942;SHT31;54731;42.600;23.476;2023-07-02T11:32:54;28.03;49.22
67942;SHT31;54731;42.600;23.476;2023-07-02T11:35:20;28.24;50.61
67942;SHT31;54731;42.600;23.476;2023-07-02T11:37:46;28.40;49.43
67942;SHT31;54731;42.600;23.476;2023-07-02T11:40:12;28.44;49.00
67942;SHT31;54731;42.600;23.476;2023-07-02T11:42:37;28.55;50.99
67942;SHT31;54731;42.600;23.476;2023-07-02T11:45:03;28.62;49.06
67942;SHT31;54731;42.600;23.476;2023-07-02T11:47:28;29.01;50.44
67942;SHT31;54731;42.600;23.476;2023-07-02T11:49:54;29.12;49.54
67942;SHT31;54731;42.600;23.476;2023-07-02T11:52:19;29.40;49.30
67942;SHT31;54731;42.600;23.476;2023-07-02T11:54:44;29.46;46.97
67942;SHT31;54731;42.600;23.476;2023-07-02T11:57:09;29.64;47.21
67942;SHT31;54731;42.600;23.476;2023-07-02T11:59:35;29.97;46.17
67942;SHT31;54731;42.600;23.476;2023-07-02T12:02:00;30.04;46.35
67942;SHT31;54731;42.600;23.476;2023-07-02T12:04:25;30.11;45.62
67942;SHT31;54731;42.600;23.476;2023-07-02T12:06:51;29.74;46.66
67942;SHT31;54731;42.600;23.476;2023-07-02T12:09:16;29.77;46.15
67942;SHT31;54731;42.600;23.476;2023-07-02T12:11:41;30.00;45.44
67942;SHT31;54731;42.600;23.476;2023-07-02T12:14:06;29.84;46.10
67942;SHT31;54731;42.600;23.476;2023-07-02T12:16:32;29.45;45.92
67942;SHT31;54731;42.600;23.476;2023-07-02T12:18:57;29.03;46.93
67942;SHT31;54731;42.600;23.476;2023-07-02T12:21:22;28.79;48.38
67942;SHT31;54731;42.600;23.476;2023-07-02T12:23:48;28.98;46.63
67942;SHT31;54731;42.600;23.476;2023-07-02T12:26:13;28.59;48.28
67942;SHT31;54731;42.600;23.476;2023-07-02T12:28:38;28.51;48.04
67942;SHT31;54731;42.600;23.476;2023-07-02T12:31:03;28.61;49.13
67942;SHT31;54731;42.600;23.476;2023-07-02T12:33:29;28.62;47.79
67942;SHT31;54731;42.600;23.476;2023-07-02T12:35:54;28.44;47.54
67942;SHT31;54731;42.600;23.476;2023-07-02T12:38:19;28.41;47.78
67942;SHT31;54731;42.600;23.476;2023-07-02T12:40:45;27.87;48.46
67942;SHT31;54731;42.600;23.476;2023-07-02T12:43:11;27.73;48.00
67942;SHT31;54731;42.600;23.476;2023-07-02T12:45:36;28.04;48.17
67942;SHT31;54731;42.600;23.476;2023-07-02T12:48:01;28.22;47.77
67942;SHT31;54731;42.600;23.476;2023-07-02T12:50:26;28.27;47.32
67942;SHT31;54731;42.600;23.476;2023-07-02T12:52:52;28.45;47.39
67942;SHT31;54731;42.600;23.476;2023-07-02T12:55:17;28.58;46.29
67942;SHT31;54731;42.600;23.476;2023-07-02T12:57:42;28.83;45.09
67942;SHT31;54731;42.600;23.476;2023-07-02T13:00:08;29.16;45.58
67942;SHT31;54731;42.600;23.476;2023-07-02T13:02:33;29.08;44.30
67942;SHT31;54731;42.600;23.476;2023-07-02T13:04:59;28.95;44.74
67942;SHT31;54731;42.600;23.476;2023-07-02T13:07:24;28.91;44.80
67942;SHT31;54731;42.600;23.476;2023-07-02T13:09:50;28.52;45.80
67942;SHT31;54731;42.600;23.476;2023-07-02T13:12:15;28.17;46.43
67942;SHT31;54731;42.600;23.476;2023-07-02T13:14:40;28.03;48.63
67942;SHT31;54731;42.600;23.476;2023-07-02T13:17:06;27.80;48.95
67942;SHT31;54731;42.600;23.476;2023-07-02T13:19:31;27.67;49.79
67942;SHT31;54731;42.600;23.476;2023-07-02T13:21:57;27.42;50.71
67942;SHT31;54731;42.600;23.476;2023-07-02T13:24:22;27.39;50.99
67942;SHT31;54731;42.600;23.476;2023-07-02T13:26:48;27.33;50.86
67942;SHT31;54731;42.600;23.476;2023-07-02T13:29:14;27.05;50.96
67942;SHT31;54731;42.600;23.476;2023-07-02T13:31:39;27.15;50.15
67942;SHT31;54731;42.600;23.476;2023-07-02T13:34:04;26.99;50.46
67942;SHT31;54731;42.600;23.476;2023-07-02T13:36:29;27.12;48.91
67942;SHT31;54731;42.600;23.476;2023-07-02T13:38:55;27.33;50.94
67942;SHT31;54731;42.600;23.476;2023-07-02T13:41:20;27.49;48.41
67942;SHT31;54731;42.600;23.476;2023-07-02T13:43:46;27.71;49.62
67942;SHT31;54731;42.600;23.476;2023-07-02T13:46:11;27.89;49.08
67942;SHT31;54731;42.600;23.476;2023-07-02T13:48:36;27.90;49.34
67942;SHT31;54731;42.600;23.476;2023-07-02T13:51:02;28.03;49.44
67942;SHT31;54731;42.600;23.476;2023-07-02T13:53:27;27.92;48.10
67942;SHT31;54731;42.600;23.476;2023-07-02T13:55:52;27.96;47.65
67942;SHT31;54731;42.600;23.476;2023-07-02T13:58:18;28.20;45.26
67942;SHT31;54731;42.600;23.476;2023-07-02T14:00:43;28.54;44.76
67942;SHT31;54731;42.600;23.476;2023-07-02T14:03:08;28.79;45.00
67942;SHT31;54731;42.600;23.476;2023-07-02T14:05:34;29.03;43.36
67942;SHT31;54731;42.600;23.476;2023-07-02T14:07:59;29.12;42.47
67942;SHT31;54731;42.600;23.476;2023-07-02T14:10:24;29.05;43.67
67942;SHT31;54731;42.600;23.476;2023-07-02T14:12:50;28.91;44.40
67942;SHT31;54731;42.600;23.476;2023-07-02T14:15:15;28.89;45.10
67942;SHT31;54731;42.600;23.476;2023-07-02T14:17:40;28.49;44.57
67942;SHT31;54731;42.600;23.476;2023-07-02T14:20:08;28.38;46.59
67942;SHT31;54731;42.600;23.476;2023-07-02T14:22:34;28.28;45.44
67942;SHT31;54731;42.600;23.476;2023-07-02T14:24:59;28.24;47.26
67942;SHT31;54731;42.600;23.476;2023-07-02T14:27:24;28.28;47.78
67942;SHT31;54731;42.600;23.476;2023-07-02T14:29:50;28.59;47.26
67942;SHT31;54731;42.600;23.476;2023-07-02T14:32:15;28.94;46.59
67942;SHT31;54731;42.600;23.476;2023-07-02T14:34:41;28.83;47.11
67942;SHT31;54731;42.600;23.476;2023-07-02T14:37:06;29.03;46.82
67942;SHT31;54731;42.600;23.476;2023-07-02T14:39:32;29.10;46.70
67942;SHT31;54731;42.600;23.476;2023-07-02T14:41:57;29.01;46.57
67942;SHT31;54731;42.600;23.476;2023-07-02T14:44:22;28.87;47.11
67942;SHT31;54731;42.600;23.476;2023-07-02T14:46:47;28.67;48.22
67942;SHT31;54731;42.600;23.476;2023-07-02T14:49:14;28.31;48.87
67942;SHT31;54731;42.600;23.476;2023-07-02T14:51:39;27.71;50.25
67942;SHT31;54731;42.600;23.476;2023-07-02T14:54:04;27.29;51.17
67942;SHT31;54731;42.600;23.476;2023-07-02T14:56:30;27.01;51.82
67942;SHT31;54731;42.600;23.476;2023-07-02T14:58:56;26.72;52.42
67942;SHT31;54731;42.600;23.476;2023-07-02T15:01:21;26.30;52.86
67942;SHT31;54731;42.600;23.476;2023-07-02T15:03:46;25.56;55.24
67942;SHT31;54731;42.600;23.476;2023-07-02T15:06:17;25.75;54.46
67942;SHT31;54731;42.600;23.476;2023-07-02T15:08:43;25.69;53.70
67942;SHT31;54731;42.600;23.476;2023-07-02T15:11:11;25.73;53.73
67942;SHT31;54731;42.600;23.476;2023-07-02T15:13:37;25.70;55.06
67942;SHT31;54731;42.600;23.476;2023-07-02T15:16:02;25.52;53.75